createdAt,value
2018-02-03T00:01:49.043Z,12.15
2018-02-03T00:04:17.332Z,10.52
2018-02-03T00:06:44.924Z,12.07
2018-02-03T00:09:13.233Z,7.00
2018-02-03T00:11:40.837Z,16.60
2018-02-03T00:14:08.391Z,7.37
2018-02-03T00:16:35.942Z,14.95
2018-02-03T00:19:03.511Z,10.80
2018-02-03T00:21:31.732Z,6.62
2018-02-03T00:23:59.343Z,9.48
2018-02-03T00:26:26.909Z,10.00
2018-02-03T00:28:54.449Z,12.63
2018-02-03T00:31:22.001Z,15.43
2018-02-03T00:33:49.531Z,8.05
2018-02-03T00:36:17.070Z,12.57
2018-02-03T00:38:45.373Z,13.00
2018-02-03T00:41:13.025Z,9.95
2018-02-03T00:43:40.580Z,10.90
2018-02-03T00:46:09.228Z,14.27
2018-02-03T00:48:38.467Z,10.65
2018-02-03T00:51:06.880Z,14.50
2018-02-03T00:53:34.437Z,8.55
2018-02-03T00:56:02.070Z,13.00
2018-02-03T00:58:29.685Z,19.12
2018-02-03T01:00:57.221Z,9.90
2018-02-03T01:03:25.052Z,8.20
2018-02-03T01:05:53.375Z,11.45
2018-02-03T01:08:21.621Z,11.45
2018-02-03T01:10:49.196Z,6.90
2018-02-03T01:13:17.167Z,5.95
2018-02-03T01:15:44.738Z,10.32
2018-02-03T01:18:12.267Z,14.85
2018-02-03T01:20:39.873Z,12.30
2018-02-03T01:23:11.235Z,9.63
2018-02-03T01:25:38.746Z,16.60
2018-02-03T01:28:06.754Z,11.32
2018-02-03T01:30:35.089Z,11.50
2018-02-03T01:33:02.680Z,16.00
2018-02-03T01:35:30.310Z,10.95
2018-02-03T01:37:57.861Z,6.97
2018-02-03T01:40:25.451Z,12.25
2018-02-03T01:42:52.987Z,7.72
2018-02-03T01:45:20.580Z,16.20
2018-02-03T01:47:53.096Z,9.55
2018-02-03T01:50:20.696Z,11.75
2018-02-03T01:52:48.242Z,11.18
2018-02-03T01:55:15.841Z,13.02
2018-02-03T01:57:43.400Z,16.27
2018-02-03T02:00:10.944Z,4.75
2018-02-03T02:02:39.265Z,8.18
2018-02-03T02:05:07.582Z,9.45
2018-02-03T02:07:35.558Z,7.95
2018-02-03T02:10:03.129Z,4.55
2018-02-03T02:12:30.681Z,14.13
2018-02-03T02:14:58.231Z,7.20
2018-02-03T02:17:25.744Z,9.93
2018-02-03T02:19:53.283Z,6.45
2018-02-03T02:22:20.809Z,13.30
2018-02-03T02:24:48.333Z,6.75
2018-02-03T02:27:17.496Z,6.93
2018-02-03T02:29:45.845Z,10.13
2018-02-03T02:32:13.417Z,8.68
2018-02-03T02:34:40.927Z,11.05
2018-02-03T02:37:09.241Z,8.35
2018-02-03T02:39:37.088Z,15.45
2018-02-03T02:42:05.425Z,8.32
2018-02-03T02:44:33.840Z,8.80
2018-02-03T02:47:02.197Z,8.90
2018-02-03T02:49:30.503Z,6.47
2018-02-03T02:51:58.815Z,16.17
2018-02-03T02:54:26.347Z,10.20
2018-02-03T02:56:53.875Z,5.90
2018-02-03T02:59:21.590Z,6.85
2018-02-03T03:01:49.923Z,5.40
2018-02-03T03:04:18.247Z,8.90
2018-02-03T03:06:45.781Z,8.93
2018-02-03T03:09:14.112Z,11.48
2018-02-03T03:11:41.643Z,9.90
2018-02-03T03:14:09.166Z,10.23
2018-02-03T03:16:36.712Z,5.97
2018-02-03T03:19:04.254Z,14.23
2018-02-03T03:21:31.828Z,13.48
2018-02-03T03:23:59.360Z,8.02
2018-02-03T03:26:27.619Z,8.63
2018-02-03T03:28:55.178Z,24.45
2018-02-03T03:31:22.737Z,14.38
2018-02-03T03:33:51.190Z,10.73
2018-02-03T03:36:19.578Z,14.77
2018-02-03T03:38:47.838Z,10.18
2018-02-03T03:41:15.662Z,12.48
2018-02-03T03:43:43.224Z,11.63
2018-02-03T03:46:10.730Z,16.45
2018-02-03T03:48:39.113Z,12.52
2018-02-03T03:51:07.434Z,9.05
2018-02-03T03:53:35.973Z,13.10
2018-02-03T03:56:03.739Z,10.02
2018-02-03T03:58:32.116Z,12.40
2018-02-03T04:00:59.624Z,8.57
2018-02-03T04:03:27.135Z,10.93
2018-02-03T04:05:56.241Z,15.27
2018-02-03T04:08:25.405Z,11.70
2018-02-03T04:10:52.940Z,12.98
2018-02-03T04:13:20.476Z,8.20
2018-02-03T04:15:48.003Z,13.90
2018-02-03T04:18:16.629Z,14.13
2018-02-03T04:20:44.187Z,12.27
2018-02-03T04:23:11.717Z,17.25
2018-02-03T04:25:39.262Z,6.97
2018-02-03T04:28:07.632Z,9.68
2018-02-03T04:30:35.999Z,8.43
2018-02-03T04:33:03.564Z,8.73
2018-02-03T04:35:31.115Z,8.30
2018-02-03T04:37:59.264Z,6.62
2018-02-03T04:40:27.603Z,12.93
2018-02-03T04:42:56.464Z,8.10
2018-02-03T04:45:24.013Z,11.43
2018-02-03T04:47:52.327Z,6.40
2018-02-03T04:50:19.949Z,5.28
2018-02-03T04:52:47.462Z,6.15
2018-02-03T04:55:15.012Z,8.13
2018-02-03T04:57:42.662Z,8.13
2018-02-03T05:00:10.993Z,5.78
2018-02-03T05:02:38.617Z,10.48
2018-02-03T05:05:06.224Z,9.82
2018-02-03T05:07:34.134Z,4.68
2018-02-03T05:10:02.431Z,9.05
2018-02-03T05:12:30.079Z,10.20
2018-02-03T05:14:57.646Z,11.40
2018-02-03T05:17:25.188Z,4.85
2018-02-03T05:19:53.508Z,10.18
2018-02-03T05:22:21.321Z,7.97
2018-02-03T05:24:49.626Z,9.48
2018-02-03T05:27:17.206Z,13.20
2018-02-03T05:29:44.785Z,11.60
2018-02-03T05:32:12.308Z,6.12
2018-02-03T05:34:39.876Z,9.95
2018-02-03T05:37:07.490Z,6.60
2018-02-03T05:39:35.073Z,7.18
2018-02-03T05:42:02.746Z,11.68
2018-02-03T05:44:35.669Z,8.43
2018-02-03T05:47:03.223Z,9.23
2018-02-03T05:49:31.556Z,7.45
2018-02-03T05:51:59.083Z,14.13
2018-02-03T05:54:27.550Z,8.93
2018-02-03T05:56:55.212Z,7.78
2018-02-03T05:59:23.078Z,11.50
2018-02-03T06:01:51.065Z,5.75
2018-02-03T06:04:18.622Z,12.40
2018-02-03T06:06:46.143Z,11.10
2018-02-03T06:09:13.672Z,8.13
2018-02-03T06:11:42.079Z,9.82
2018-02-03T06:14:10.441Z,8.05
2018-02-03T06:16:39.813Z,12.18
2018-02-03T06:19:08.273Z,15.75
2018-02-03T06:21:35.830Z,22.33
2018-02-03T06:24:03.427Z,12.55
2018-02-03T06:26:31.697Z,14.82
2018-02-03T06:28:59.217Z,10.70
2018-02-03T06:31:26.806Z,9.05
2018-02-03T06:33:54.431Z,8.48
2018-02-03T06:36:21.983Z,16.55
2018-02-03T06:38:49.654Z,15.32
2018-02-03T06:41:18.213Z,11.63
2018-02-03T06:43:45.737Z,13.15
2018-02-03T06:46:13.304Z,13.65
2018-02-03T06:48:41.627Z,10.88
2018-02-03T06:51:09.450Z,10.35
2018-02-03T06:53:37.786Z,13.75
2018-02-03T06:56:05.298Z,17.85
2018-02-03T06:58:33.630Z,11.88
2018-02-03T07:01:01.256Z,19.27
2018-02-03T07:03:28.789Z,9.40
2018-02-03T07:05:57.108Z,11.95
2018-02-03T07:08:25.257Z,17.77
2018-02-03T07:10:52.785Z,17.08
2018-02-03T07:13:20.307Z,8.48
2018-02-03T07:15:48.251Z,12.80
2018-02-03T07:18:15.804Z,11.07
2018-02-03T07:20:43.364Z,12.05
2018-02-03T07:23:10.923Z,11.15
2018-02-03T07:25:38.703Z,10.90
2018-02-03T07:28:06.266Z,10.50
2018-02-03T07:30:33.840Z,12.73
2018-02-03T07:33:01.436Z,13.65
2018-02-03T07:35:29.018Z,11.12
2018-02-03T07:37:56.604Z,11.00
2018-02-03T07:40:25.338Z,12.35
2018-02-03T07:42:52.846Z,18.60
2018-02-03T07:45:20.407Z,6.70
2018-02-03T07:47:47.969Z,17.87
2018-02-03T07:50:15.495Z,18.87
2018-02-03T07:52:43.085Z,22.67
2018-02-03T07:55:13.100Z,14.38
2018-02-03T07:57:41.430Z,10.95
2018-02-03T08:00:09.062Z,16.05
2018-02-03T08:02:36.601Z,15.45
2018-02-03T08:05:04.125Z,15.18
2018-02-03T08:07:31.721Z,12.15
2018-02-03T08:10:00.062Z,16.87
2018-02-03T08:12:27.646Z,14.27
2018-02-03T08:14:55.294Z,11.00
2018-02-03T08:17:22.816Z,16.67
2018-02-03T08:19:50.395Z,11.00
2018-02-03T08:22:18.733Z,15.18
2018-02-03T08:24:46.293Z,12.32
2018-02-03T08:27:14.631Z,9.80
2018-02-03T08:29:42.967Z,12.27
2018-02-03T08:32:10.564Z,14.82
2018-02-03T08:34:38.888Z,18.45
2018-02-03T08:37:06.464Z,23.50
2018-02-03T08:39:33.991Z,12.70
2018-02-03T08:42:01.524Z,11.85
2018-02-03T08:44:29.097Z,29.55
2018-02-03T08:46:57.358Z,14.18
2018-02-03T08:49:24.903Z,13.20
2018-02-03T08:51:52.503Z,11.73
2018-02-03T08:54:20.043Z,13.88
2018-02-03T08:56:47.604Z,15.65
2018-02-03T08:59:15.149Z,15.98
2018-02-03T09:01:43.458Z,11.05
2018-02-03T09:04:10.973Z,23.17
2018-02-03T09:06:38.567Z,17.52
2018-02-03T09:09:06.966Z,11.90
2018-02-03T09:11:34.640Z,25.02
2018-02-03T09:14:02.255Z,19.35
2018-02-03T09:16:29.826Z,11.45
2018-02-03T09:18:57.354Z,15.43
2018-02-03T09:21:25.529Z,24.00
2018-02-03T09:23:54.112Z,17.92
2018-02-03T09:26:21.830Z,13.35
2018-02-03T09:28:50.251Z,13.13
2018-02-03T09:31:17.833Z,15.18
2018-02-03T09:33:45.373Z,12.95
2018-02-03T09:36:12.933Z,22.42
2018-02-03T09:38:40.509Z,19.50
2018-02-03T09:41:08.057Z,13.07
2018-02-03T09:43:36.470Z,16.00
2018-02-03T09:46:04.071Z,10.32
2018-02-03T09:48:32.414Z,9.30
2018-02-03T09:51:00.043Z,23.33
2018-02-03T09:53:27.583Z,11.75
2018-02-03T09:55:55.105Z,16.23
2018-02-03T09:58:22.750Z,14.00
2018-02-03T10:00:50.331Z,13.60
2018-02-03T10:03:18.780Z,16.52
2018-02-03T10:05:47.135Z,18.00
2018-02-03T10:08:14.832Z,16.70
2018-02-03T10:10:42.393Z,14.32
2018-02-03T10:13:10.206Z,14.48
2018-02-03T10:15:37.737Z,13.25
2018-02-03T10:18:05.319Z,15.77
2018-02-03T10:20:33.738Z,20.73
2018-02-03T10:23:01.261Z,20.42
2018-02-03T10:25:29.654Z,16.92
2018-02-03T10:27:57.199Z,11.80
2018-02-03T10:30:24.780Z,13.38
2018-02-03T10:32:52.372Z,14.15
2018-02-03T10:35:19.924Z,14.18
2018-02-03T10:37:47.441Z,11.27
2018-02-03T10:40:14.991Z,19.55
2018-02-03T10:42:43.229Z,12.07
2018-02-03T10:45:10.942Z,10.95
2018-02-03T10:47:38.518Z,16.65
2018-02-03T10:50:06.130Z,20.58
2018-02-03T10:52:35.346Z,13.38
2018-02-03T10:55:04.542Z,25.10
2018-02-03T10:57:32.124Z,6.97
2018-02-03T10:59:59.712Z,17.10
2018-02-03T11:02:28.068Z,11.07
2018-02-03T11:04:56.300Z,17.50
2018-02-03T11:07:24.778Z,9.68
2018-02-03T11:09:52.383Z,10.75
2018-02-03T11:12:20.007Z,12.98
2018-02-03T11:14:48.346Z,14.85
2018-02-03T11:17:17.501Z,14.02
2018-02-03T11:19:45.204Z,11.07
2018-02-03T11:22:12.776Z,14.55
2018-02-03T11:24:40.290Z,8.90
2018-02-03T11:27:07.994Z,13.85
2018-02-03T11:29:35.605Z,11.02
2018-02-03T11:32:03.896Z,15.05
2018-02-03T11:34:31.418Z,9.35
2018-02-03T11:36:59.604Z,10.15
2018-02-03T11:39:27.386Z,19.23
2018-02-03T11:41:54.970Z,9.77
2018-02-03T11:44:23.239Z,19.67
2018-02-03T11:46:50.777Z,17.33
2018-02-03T11:49:18.335Z,11.38
2018-02-03T11:51:45.898Z,9.25
2018-02-03T11:54:13.450Z,17.25
2018-02-03T11:56:41.073Z,12.45
2018-02-03T11:59:08.617Z,10.30
2018-02-03T12:01:36.195Z,10.75
2018-02-03T12:04:03.850Z,10.45
2018-02-03T12:06:31.443Z,12.07
2018-02-03T12:08:59.001Z,10.48
2018-02-03T12:11:26.625Z,9.88
2018-02-03T12:13:55.764Z,14.38
2018-02-03T12:18:56.414Z,9.27
2018-02-03T12:21:24.872Z,8.52
2018-02-03T12:23:52.467Z,7.22
2018-02-03T12:26:21.726Z,21.80
2018-02-03T12:28:49.284Z,9.20
2018-02-03T12:31:16.810Z,7.87
2018-02-03T12:33:44.425Z,13.75
2018-02-03T12:36:11.966Z,9.60
2018-02-03T12:38:40.334Z,8.98
2018-02-03T12:41:08.840Z,9.13
2018-02-03T12:43:36.388Z,11.02
2018-02-03T12:46:03.998Z,12.32
2018-02-03T12:48:31.619Z,5.50
2018-02-03T12:50:59.160Z,7.55
2018-02-03T12:53:26.686Z,10.95
2018-02-03T12:55:55.336Z,10.57
2018-02-03T12:58:22.908Z,16.30
2018-02-03T13:00:51.447Z,14.30
2018-02-03T13:03:19.038Z,12.95
2018-02-03T13:05:46.664Z,19.33
2018-02-03T13:08:14.258Z,20.65
2018-02-03T13:10:41.862Z,11.88
2018-02-03T13:13:09.395Z,10.10
2018-02-03T13:15:37.799Z,16.08
2018-02-03T13:18:05.436Z,13.80
2018-02-03T13:20:33.807Z,17.25
2018-02-03T13:23:01.492Z,15.70
2018-02-03T13:25:29.026Z,14.95
2018-02-03T13:27:56.565Z,10.30
2018-02-03T13:30:24.120Z,15.30
2018-02-03T13:32:51.800Z,19.95
2018-02-03T13:35:19.403Z,12.02
2018-02-03T13:37:47.041Z,13.52
2018-02-03T13:40:14.662Z,14.38
2018-02-03T13:42:42.201Z,9.32
2018-02-03T13:45:09.847Z,24.75
2018-02-03T13:47:37.404Z,18.98
2018-02-03T13:50:05.172Z,16.92
2018-02-03T13:52:33.534Z,13.23
2018-02-03T13:55:02.067Z,14.25
2018-02-03T13:57:29.637Z,20.37
2018-02-03T13:59:57.157Z,13.10
2018-02-03T14:02:24.754Z,16.20
2018-02-03T14:04:52.350Z,12.05
2018-02-03T14:07:19.907Z,20.45
2018-02-03T14:09:47.640Z,12.73
2018-02-03T14:12:15.673Z,19.55
2018-02-03T14:14:43.223Z,19.17
2018-02-03T14:17:10.819Z,15.63
2018-02-03T14:19:38.367Z,16.87
2018-02-03T14:22:05.882Z,15.27
2018-02-03T14:24:39.145Z,17.08
2018-02-03T14:27:07.637Z,19.85
2018-02-03T14:29:35.210Z,16.30
2018-02-03T14:32:02.763Z,18.60
2018-02-03T14:34:31.109Z,18.25
2018-02-03T14:36:58.749Z,21.30
2018-02-03T14:39:26.335Z,13.23
2018-02-03T14:41:53.902Z,23.50
2018-02-03T14:44:21.429Z,15.35
2018-02-03T14:46:49.785Z,30.08
2018-02-03T14:49:17.370Z,21.70
2018-02-03T14:51:45.366Z,18.65
2018-02-03T14:54:12.981Z,17.87
2018-02-03T14:56:41.335Z,23.50
2018-02-03T14:59:09.731Z,18.42
2018-02-03T15:01:37.302Z,18.48
2018-02-03T15:04:05.658Z,20.12
2018-02-03T15:06:33.252Z,21.87
2018-02-03T15:09:00.787Z,19.58
2018-02-03T15:11:28.396Z,20.98
2018-02-03T15:13:56.036Z,18.70
2018-02-03T15:16:24.360Z,19.23
2018-02-03T15:18:51.969Z,25.90
2018-02-03T15:21:19.696Z,21.60
2018-02-03T15:23:47.229Z,14.75
2018-02-03T15:26:14.879Z,24.20
2018-02-03T15:28:42.471Z,25.27
2018-02-03T15:31:10.084Z,28.87
2018-02-03T15:33:38.407Z,26.87
2018-02-03T15:36:06.020Z,19.92
2018-02-03T15:38:34.441Z,24.30
2018-02-03T15:41:01.981Z,20.33
2018-02-03T15:43:29.519Z,21.23
2018-02-03T15:45:57.892Z,24.83
2018-02-03T15:48:26.238Z,21.98
2018-02-03T15:50:53.834Z,24.50
2018-02-03T15:53:22.213Z,25.75
2018-02-03T15:55:50.516Z,27.75
2018-02-03T15:58:18.252Z,19.58
2018-02-03T16:00:46.636Z,22.35
2018-02-03T16:03:14.210Z,25.02
2018-02-03T16:05:41.792Z,24.70
2018-02-03T16:08:09.426Z,23.02
2018-02-03T16:10:37.710Z,22.92
2018-02-03T16:13:05.225Z,27.87
2018-02-03T16:15:33.546Z,28.67
2018-02-03T16:18:01.071Z,22.55
2018-02-03T16:20:29.246Z,27.23
2018-02-03T16:22:56.848Z,26.87
2018-02-03T16:25:24.429Z,39.25
2018-02-03T16:27:51.937Z,28.85
2018-02-03T16:30:19.497Z,36.85
2018-02-03T16:32:47.067Z,28.48
2018-02-03T16:35:14.650Z,34.20
2018-02-03T16:37:42.831Z,27.80
2018-02-03T16:40:10.389Z,24.37
2018-02-03T16:42:39.215Z,26.23
2018-02-03T16:45:06.760Z,26.33
2018-02-03T16:47:34.305Z,24.02
2018-02-03T16:50:01.890Z,27.77
2018-02-03T16:52:30.278Z,25.33
2018-02-03T16:54:57.855Z,25.77
2018-02-03T16:57:26.186Z,26.77
2018-02-03T16:59:53.721Z,29.95
2018-02-03T17:02:21.376Z,30.90
2018-02-03T17:04:48.975Z,31.25
2018-02-03T17:07:16.946Z,34.75
2018-02-03T17:09:44.516Z,40.78
2018-02-03T17:12:12.129Z,32.60
2018-02-03T17:14:40.493Z,33.58
2018-02-03T17:17:08.084Z,33.20
2018-02-03T17:19:35.673Z,40.12
2018-02-03T17:22:04.627Z,35.15
2018-02-03T17:24:32.206Z,30.15
2018-02-03T17:27:00.713Z,35.97
2018-02-03T17:29:28.590Z,30.60
2018-02-03T17:31:56.737Z,38.42
2018-02-03T17:34:25.323Z,36.00
2018-02-03T17:36:59.255Z,35.05
2018-02-03T17:39:26.865Z,37.60
2018-02-03T17:41:54.503Z,38.05
2018-02-03T17:44:22.107Z,37.65
2018-02-03T17:46:55.798Z,35.45
2018-02-03T17:49:24.034Z,32.45
2018-02-03T17:51:51.609Z,26.35
2018-02-03T17:54:19.216Z,26.45
2018-02-03T17:56:52.408Z,22.35
2018-02-03T17:59:20.078Z,23.25
2018-02-03T18:01:47.630Z,19.55
2018-02-03T18:04:15.228Z,16.83
2018-02-03T18:06:48.393Z,12.65
2018-02-03T18:09:15.928Z,13.00
2018-02-03T18:11:44.339Z,18.33
2018-02-03T18:14:11.852Z,9.43
2018-02-03T18:16:39.444Z,15.57
2018-02-03T18:19:07.766Z,13.30
2018-02-03T18:21:35.386Z,11.18
2018-02-03T18:24:03.865Z,14.32
2018-02-03T18:26:31.432Z,13.93
2018-02-03T18:28:59.083Z,16.23
2018-02-03T18:31:27.809Z,16.58
2018-02-03T18:33:55.392Z,13.35
2018-02-03T18:36:23.011Z,20.40
2018-02-03T18:38:50.560Z,14.75
2018-02-03T18:41:18.194Z,20.33
2018-02-03T18:43:45.713Z,20.42
2018-02-03T18:46:13.240Z,17.52
2018-02-03T18:48:41.557Z,17.45
2018-02-03T18:51:09.889Z,22.33
2018-02-03T18:53:38.214Z,15.27
2018-02-03T18:56:05.824Z,19.52
2018-02-03T18:58:33.518Z,18.00
2018-02-03T19:01:01.127Z,16.85
2018-02-03T19:03:29.665Z,22.83
2018-02-03T19:05:57.256Z,20.80
2018-02-03T19:08:24.819Z,21.37
2018-02-03T19:10:52.431Z,22.75
2018-02-03T19:13:20.703Z,21.37
2018-02-03T19:15:48.318Z,22.83
2018-02-03T19:18:15.890Z,19.95
2018-02-03T19:20:43.448Z,30.27
2018-02-03T19:23:12.700Z,21.67
2018-02-03T19:25:40.297Z,20.73
2018-02-03T19:28:07.874Z,19.80
2018-02-03T19:30:35.466Z,25.00
2018-02-03T19:33:02.994Z,22.10
2018-02-03T19:35:30.570Z,20.70
2018-02-03T19:37:58.980Z,35.03
2018-02-03T19:40:26.494Z,19.92
2018-02-03T19:42:54.029Z,26.50
2018-02-03T19:45:21.589Z,27.27
2018-02-03T19:47:49.145Z,22.90
2018-02-03T19:50:16.724Z,22.95
2018-02-03T19:52:44.312Z,26.50
2018-02-03T19:55:11.849Z,16.30
2018-02-03T19:57:39.364Z,28.17
2018-02-03T20:00:06.921Z,24.35
2018-02-03T20:02:34.516Z,19.58
2018-02-03T20:05:02.404Z,24.08
2018-02-03T20:10:22.288Z,28.30
2018-02-03T20:12:49.814Z,20.23
2018-02-03T20:15:18.196Z,24.92
2018-02-03T20:17:45.754Z,20.92
2018-02-03T20:20:13.300Z,18.67
2018-02-03T20:22:40.940Z,20.37
2018-02-03T20:25:08.564Z,20.52
2018-02-03T20:27:36.231Z,23.77
2018-02-03T20:30:04.705Z,21.52
2018-02-03T20:32:32.429Z,18.30
2018-02-03T20:34:59.981Z,20.30
2018-02-03T20:37:27.494Z,19.90
2018-02-03T20:39:55.518Z,19.10
2018-02-03T20:42:23.090Z,19.37
2018-02-03T20:44:50.639Z,23.40
2018-02-03T20:47:19.033Z,18.25
2018-02-03T20:49:46.579Z,16.40
2018-02-03T20:52:15.020Z,12.57
2018-02-03T20:54:43.392Z,20.25
2018-02-03T20:57:11.893Z,17.62
2018-02-03T20:59:39.637Z,17.67
2018-02-03T21:02:08.044Z,15.98
2018-02-03T21:04:35.600Z,19.87
2018-02-03T21:07:03.227Z,16.20
2018-02-03T21:09:30.739Z,14.90
2018-02-03T21:11:58.313Z,13.90
2018-02-03T21:14:25.960Z,14.80
2018-02-03T21:16:53.480Z,16.23
2018-02-03T21:19:21.799Z,12.95
2018-02-03T21:21:49.339Z,14.30
2018-02-03T21:24:17.617Z,14.73
2018-02-03T21:26:45.146Z,14.00
2018-02-03T21:29:13.592Z,16.58
2018-02-03T21:31:41.184Z,16.62
2018-02-03T21:34:08.738Z,16.65
2018-02-03T21:36:36.269Z,17.15
2018-02-03T21:39:04.419Z,13.65
2018-02-03T21:41:31.965Z,21.83
2018-02-03T21:43:59.461Z,14.65
2018-02-03T21:46:27.872Z,15.13
2018-02-03T21:48:55.897Z,22.77
2018-02-03T21:51:23.507Z,11.45
2018-02-03T21:53:51.094Z,22.20
2018-02-03T21:56:19.457Z,16.80
2018-02-03T21:58:48.650Z,13.52
2018-02-03T22:01:17.095Z,15.45
2018-02-03T22:03:44.726Z,15.95
2018-02-03T22:06:12.634Z,24.63
2018-02-03T22:08:40.699Z,21.15
2018-02-03T22:11:08.423Z,18.52
2018-02-03T22:13:36.315Z,16.33
2018-02-03T22:16:04.021Z,17.15
2018-02-03T22:18:31.884Z,19.40
2018-02-03T22:20:59.610Z,18.92
2018-02-03T22:23:27.216Z,20.15
2018-02-03T22:25:54.740Z,18.83
2018-02-03T22:28:22.289Z,17.23
2018-02-03T22:30:49.864Z,19.33
2018-02-03T22:33:18.152Z,17.85
2018-02-03T22:35:45.764Z,18.25
2018-02-03T22:38:13.335Z,14.25
2018-02-03T22:40:40.928Z,16.62
2018-02-03T22:43:08.499Z,17.40
2018-02-03T22:45:36.103Z,20.67
2018-02-03T22:48:03.793Z,17.00
2018-02-03T22:50:31.828Z,13.82
2018-02-03T22:53:00.633Z,16.52
2018-02-03T22:55:31.968Z,16.25
2018-02-03T22:58:00.812Z,12.70
2018-02-03T23:00:28.360Z,15.02
2018-02-03T23:02:59.723Z,20.77
2018-02-03T23:05:27.866Z,16.37
2018-02-03T23:07:55.413Z,17.15
2018-02-03T23:10:22.985Z,13.23
2018-02-03T23:12:50.740Z,18.00
2018-02-03T23:15:18.323Z,14.23
2018-02-03T23:17:46.352Z,12.20
2018-02-03T23:20:13.905Z,16.48
2018-02-03T23:22:42.256Z,11.73
2018-02-03T23:25:09.820Z,22.92
2018-02-03T23:27:38.071Z,18.58
2018-02-03T23:30:05.667Z,11.90
2018-02-03T23:32:33.247Z,16.55
2018-02-03T23:35:03.872Z,14.57
2018-02-03T23:37:31.542Z,20.48
2018-02-03T23:39:59.120Z,17.35
2018-02-03T23:42:26.701Z,14.65
2018-02-03T23:44:55.036Z,19.55
2018-02-03T23:47:22.950Z,16.40
2018-02-03T23:49:55.681Z,16.00
2018-02-03T23:52:24.105Z,14.68
2018-02-03T23:54:52.468Z,15.27
2018-02-03T23:57:20.980Z,16.95
2018-02-03T23:59:48.598Z,18.20
